sensor_id;sensor_type;location;lat;lon;timestamp;temperature;humidity
52439;DHT22;73188;52.948;6.012;2024-02-21T00:09:17;15.60;99.90
52439;DHT22;73188;52.948;6.012;2024-02-21T00:19:46;15.80;99.90
52439;DHT22;73188;52.948;6.012;2024-02-21T00:30:12;15.80;99.90
52439;DHT22;73188;52.948;6.012;2024-02-21T00:40:38;15.80;99.90
52439;DHT22;73188;52.948;6.012;2024-02-21T00:51:04;15.90;99.90
52439;DHT22;73188;52.948;6.012;2024-02-21T01:01:29;16.00;99.90
52439;DHT22;73188;52.948;6.012;2024-02-21T01:11:55;16.10;99.90
52439;DHT22;73188;52.948;6.012;2024-02-21T01:22:21;16.40;99.90
52439;DHT22;73188;52.948;6.012;2024-02-21T01:32:47;16.50;99.90
52439;DHT22;73188;52.948;6.012;2024-02-21T01:43:17;16.60;99.90
52439;DHT22;73188;52.948;6.012;2024-02-21T01:53:46;16.70;99.90
52439;DHT22;73188;52.948;6.012;2024-02-21T02:04:13;16.80;99.90
52439;DHT22;73188;52.948;6.012;2024-02-21T02:14:39;17.00;99.90
52439;DHT22;73188;52.948;6.012;2024-02-21T02:25:05;17.10;99.90
52439;DHT22;73188;52.948;6.012;2024-02-21T02:35:31;17.10;99.90
52439;DHT22;73188;52.948;6.012;2024-02-21T02:45:57;17.10;99.90
52439;DHT22;73188;52.948;6.012;2024-02-21T02:56:23;17.30;99.90
52439;DHT22;73188;52.948;6.012;2024-02-21T03:06:49;17.30;99.90
52439;DHT22;73188;52.948;6.012;2024-02-21T03:17:16;17.40;99.90
52439;DHT22;73188;52.948;6.012;2024-02-21T03:27:42;17.40;99.90
52439;DHT22;73188;52.948;6.012;2024-02-21T03:38:07;17.40;99.90
52439;DHT22;73188;52.948;6.012;2024-02-21T03:48:33;17.50;99.90
52439;DHT22;73188;52.948;6.012;2024-02-21T03:58:59;17.50;99.90
52439;DHT22;73188;52.948;6.012;2024-02-21T04:09:25;17.50;99.90
52439;DHT22;73188;52.948;6.012;2024-02-21T04:19:53;17.60;99.90
52439;DHT22;73188;52.948;6.012;2024-02-21T04:30:27;17.70;99.90
52439;DHT22;73188;52.948;6.012;2024-02-21T04:40:53;17.60;99.90
52439;DHT22;73188;52.948;6.012;2024-02-21T04:51:19;17.60;99.90
52439;DHT22;73188;52.948;6.012;2024-02-21T05:01:44;17.60;99.90
52439;DHT22;73188;52.948;6.012;2024-02-21T05:12:10;17.50;99.90
52439;DHT22;73188;52.948;6.012;2024-02-21T05:22:36;17.50;99.90
52439;DHT22;73188;52.948;6.012;2024-02-21T05:33:06;17.50;99.90
52439;DHT22;73188;52.948;6.012;2024-02-21T05:43:32;17.50;99.90
52439;DHT22;73188;52.948;6.012;2024-02-21T05:53:57;17.50;99.90
52439;DHT22;73188;52.948;6.012;2024-02-21T06:04:23;17.50;99.90
52439;DHT22;73188;52.948;6.012;2024-02-21T06:14:49;17.50;99.90
52439;DHT22;73188;52.948;6.012;2024-02-21T06:25:15;17.60;99.90
52439;DHT22;73188;52.948;6.012;2024-02-21T06:35:41;17.70;99.90
52439;DHT22;73188;52.948;6.012;2024-02-21T06:46:08;17.70;99.90
52439;DHT22;73188;52.948;6.012;2024-02-21T06:56:34;17.60;99.90
52439;DHT22;73188;52.948;6.012;2024-02-21T07:07:00;17.70;99.90
52439;DHT22;73188;52.948;6.012;2024-02-21T07:17:26;17.60;99.90
52439;DHT22;73188;52.948;6.012;2024-02-21T07:27:51;17.60;99.90
52439;DHT22;73188;52.948;6.012;2024-02-21T07:38:17;17.60;99.90
52439;DHT22;73188;52.948;6.012;2024-02-21T07:48:45;17.60;99.90
52439;DHT22;73188;52.948;6.012;2024-02-21T07:59:12;17.50;99.90
52439;DHT22;73188;52.948;6.012;2024-02-21T08:09:40;17.40;99.90
52439;DHT22;73188;52.948;6.012;2024-02-21T08:20:06;17.20;99.90
52439;DHT22;73188;52.948;6.012;2024-02-21T08:30:32;17.20;99.90
52439;DHT22;73188;52.948;6.012;2024-02-21T08:40:58;17.10;99.90
52439;DHT22;73188;52.948;6.012;2024-02-21T08:51:23;17.10;99.90
52439;DHT22;73188;52.948;6.012;2024-02-21T09:01:50;17.00;99.90
52439;DHT22;73188;52.948;6.012;2024-02-21T09:12:17;16.90;99.90
52439;DHT22;73188;52.948;6.012;2024-02-21T09:22:43;16.90;99.90
52439;DHT22;73188;52.948;6.012;2024-02-21T09:33:09;16.90;99.90
52439;DHT22;73188;52.948;6.012;2024-02-21T09:43:35;16.70;99.90
52439;DHT22;73188;52.948;6.012;2024-02-21T09:54:03;16.40;99.90
52439;DHT22;73188;52.948;6.012;2024-02-21T10:04:29;16.30;99.90
52439;DHT22;73188;52.948;6.012;2024-02-21T10:15:06;16.20;99.90
52439;DHT22;73188;52.948;6.012;2024-02-21T10:25:32;16.20;99.90
52439;DHT22;73188;52.948;6.012;2024-02-21T10:36:09;16.20;99.90
52439;DHT22;73188;52.948;6.012;2024-02-21T10:46:35;16.30;99.90
52439;DHT22;73188;52.948;6.012;2024-02-21T10:57:03;16.00;99.90
52439;DHT22;73188;52.948;6.012;2024-02-21T11:07:30;15.80;99.90
52439;DHT22;73188;52.948;6.012;2024-02-21T11:17:57;15.60;99.90
52439;DHT22;73188;52.948;6.012;2024-02-21T11:28:26;15.70;99.90
52439;DHT22;73188;52.948;6.012;2024-02-21T11:38:52;15.60;99.90
52439;DHT22;73188;52.948;6.012;2024-02-21T11:49:18;15.60;99.90
52439;DHT22;73188;52.948;6.012;2024-02-21T11:59:45;15.60;99.90
52439;DHT22;73188;52.948;6.012;2024-02-21T12:10:12;15.60;99.90
52439;DHT22;73188;52.948;6.012;2024-02-21T12:20:38;15.60;99.90
52439;DHT22;73188;52.948;6.012;2024-02-21T12:31:07;15.70;99.90
52439;DHT22;73188;52.948;6.012;2024-02-21T12:41:33;15.50;99.90
52439;DHT22;73188;52.948;6.012;2024-02-21T12:52:01;15.50;99.90
52439;DHT22;73188;52.948;6.012;2024-02-21T13:02:26;15.60;99.90
52439;DHT22;73188;52.948;6.012;2024-02-21T13:12:52;15.80;99.90
52439;DHT22;73188;52.948;6.012;2024-02-21T13:23:18;15.90;99.90
52439;DHT22;73188;52.948;6.012;2024-02-21T13:33:46;15.90;99.90
52439;DHT22;73188;52.948;6.012;2024-02-21T13:44:12;15.80;99.90
52439;DHT22;73188;52.948;6.012;2024-02-21T13:54:38;15.70;99.90
52439;DHT22;73188;52.948;6.012;2024-02-21T14:05:04;15.60;99.90
52439;DHT22;73188;52.948;6.012;2024-02-21T14:15:31;15.40;99.90
52439;DHT22;73188;52.948;6.012;2024-02-21T14:25:57;15.40;99.90
52439;DHT22;73188;52.948;6.012;2024-02-21T14:36:23;15.40;99.90
52439;DHT22;73188;52.948;6.012;2024-02-21T14:46:49;15.30;99.90
52439;DHT22;73188;52.948;6.012;2024-02-21T14:57:15;15.30;99.90
52439;DHT22;73188;52.948;6.012;2024-02-21T15:07:40;15.40;99.90
52439;DHT22;73188;52.948;6.012;2024-02-21T15:18:07;15.30;99.90
52439;DHT22;73188;52.948;6.012;2024-02-21T15:28:33;15.40;99.90
52439;DHT22;73188;52.948;6.012;2024-02-21T15:38:59;15.40;99.90
52439;DHT22;73188;52.948;6.012;2024-02-21T15:49:27;15.30;99.90
52439;DHT22;73188;52.948;6.012;2024-02-21T15:59:53;15.30;99.90
52439;DHT22;73188;52.948;6.012;2024-02-21T16:10:19;15.30;99.90
52439;DHT22;73188;52.948;6.012;2024-02-21T16:20:45;15.30;99.90
52439;DHT22;73188;52.948;6.012;2024-02-21T16:31:13;15.30;99.90
52439;DHT22;73188;52.948;6.012;2024-02-21T16:41:39;15.30;99.90
52439;DHT22;73188;52.948;6.012;2024-02-21T16:52:05;15.30;99.90
52439;DHT22;73188;52.948;6.012;2024-02-21T17:02:31;15.30;99.90
52439;DHT22;73188;52.948;6.012;2024-02-21T17:12:57;15.50;99.90
52439;DHT22;73188;52.948;6.012;2024-02-21T17:23:23;15.60;99.90
52439;DHT22;73188;52.948;6.012;2024-02-21T17:33:49;15.40;99.90
52439;DHT22;73188;52.948;6.012;2024-02-21T17:44:15;15.80;99.90
52439;DHT22;73188;52.948;6.012;2024-02-21T17:54:41;15.50;99.90
52439;DHT22;73188;52.948;6.012;2024-02-21T18:05:09;16.00;99.90
52439;DHT22;73188;52.948;6.012;2024-02-21T18:15:36;15.80;99.90
52439;DHT22;73188;52.948;6.012;2024-02-21T18:26:02;16.20;99.90
52439;DHT22;73188;52.948;6.012;2024-02-21T18:36:29;16.20;99.90
52439;DHT22;73188;52.948;6.012;2024-02-21T18:46:55;16.20;99.90
52439;DHT22;73188;52.948;6.012;2024-02-21T18:57:22;16.30;99.90
52439;DHT22;73188;52.948;6.012;2024-02-21T19:07:49;16.20;99.90
52439;DHT22;73188;52.948;6.012;2024-02-21T19:18:15;16.40;99.90
52439;DHT22;73188;52.948;6.012;2024-02-21T19:28:41;16.30;99.90
52439;DHT22;73188;52.948;6.012;2024-02-21T19:39:08;16.50;99.90
52439;DHT22;73188;52.948;6.012;2024-02-21T19:49:35;16.80;99.90
52439;DHT22;73188;52.948;6.012;2024-02-21T20:00:03;17.00;99.90
52439;DHT22;73188;52.948;6.012;2024-02-21T20:10:31;17.00;99.90
52439;DHT22;73188;52.948;6.012;2024-02-21T20:20:56;16.90;99.90
52439;DHT22;73188;52.948;6.012;2024-02-21T20:31:22;17.30;99.90
52439;DHT22;73188;52.948;6.012;2024-02-21T20:41:51;17.30;99.90
52439;DHT22;73188;52.948;6.012;2024-02-21T20:52:16;17.80;99.90
52439;DHT22;73188;52.948;6.012;2024-02-21T21:02:42;17.60;99.90
52439;DHT22;73188;52.948;6.012;2024-02-21T21:13:08;17.90;99.90
52439;DHT22;73188;52.948;6.012;2024-02-21T21:23:34;17.90;99.90
52439;DHT22;73188;52.948;6.012;2024-02-21T21:34:01;18.20;99.90
52439;DHT22;73188;52.948;6.012;2024-02-21T21:44:28;18.10;99.90
52439;DHT22;73188;52.948;6.012;2024-02-21T21:54:53;18.70;99.90
52439;DHT22;73188;52.948;6.012;2024-02-21T22:05:19;18.70;99.90
52439;DHT22;73188;52.948;6.012;2024-02-21T22:15:45;18.40;99.90
52439;DHT22;73188;52.948;6.012;2024-02-21T22:26:12;19.10;99.90
52439;DHT22;73188;52.948;6.012;2024-02-21T22:36:40;18.70;99.90
52439;DHT22;73188;52.948;6.012;2024-02-21T22:47:06;19.30;99.90
52439;DHT22;73188;52.948;6.012;2024-02-21T22:57:32;19.30;99.90
52439;DHT22;73188;52.948;6.012;2024-02-21T23:07:58;19.40;99.90
52439;DHT22;73188;52.948;6.012;2024-02-21T23:18:24;19.40;99.90
52439;DHT22;73188;52.948;6.012;2024-02-21T23:28:50;19.90;99.90
52439;DHT22;73188;52.948;6.012;2024-02-21T23:39:15;19.90;99.90
52439;DHT22;73188;52.948;6.012;2024-02-21T23:49:41;20.00;99.90
